createdAt,value
2019-02-26T00:00:36.745Z,13.00
2019-02-26T00:03:19.892Z,11.77
2019-02-26T00:06:02.067Z,12.37
2019-02-26T00:08:42.898Z,9.83
2019-02-26T00:11:26.376Z,12.77
2019-02-26T00:16:51.027Z,11.07
2019-02-26T00:19:31.953Z,13.10
2019-02-26T00:22:13.873Z,13.17
2019-02-26T00:24:55.985Z,10.20
2019-02-26T00:27:36.768Z,9.77
2019-02-26T00:30:18.615Z,10.83
2019-02-26T00:33:02.521Z,11.43
2019-02-26T00:35:43.933Z,11.40
2019-02-26T00:38:24.982Z,10.27
2019-02-26T00:41:06.148Z,8.67
2019-02-26T00:43:51.195Z,9.73
2019-02-26T00:49:14.292Z,10.20
2019-02-26T00:51:55.006Z,11.60
2019-02-26T00:54:38.758Z,10.30
2019-02-26T00:57:20.940Z,9.53
2019-02-26T01:00:03.416Z,11.03
2019-02-26T01:02:44.382Z,9.93
2019-02-26T01:05:25.176Z,10.80
2019-02-26T01:08:09.965Z,12.00
2019-02-26T01:10:52.125Z,11.60
2019-02-26T01:13:33.447Z,12.30
2019-02-26T01:16:15.032Z,11.40
2019-02-26T01:21:43.045Z,11.97
2019-02-26T01:24:25.873Z,10.90
2019-02-26T01:27:06.610Z,10.77
2019-02-26T01:32:31.782Z,10.63
2019-02-26T01:35:13.049Z,12.27
2019-02-26T01:37:55.692Z,11.67
2019-02-26T01:40:39.378Z,11.43
2019-02-26T01:43:18.722Z,11.37
2019-02-26T01:45:59.663Z,12.30
2019-02-26T01:48:41.272Z,11.40
2019-02-26T01:51:23.928Z,11.67
2019-02-26T01:54:05.354Z,11.70
2019-02-26T01:59:33.780Z,12.07
2019-02-26T02:04:59.768Z,11.50
2019-02-26T02:07:44.296Z,12.00
2019-02-26T02:13:38.070Z,11.20
2019-02-26T02:16:18.393Z,11.17
2019-02-26T02:18:59.985Z,11.70
2019-02-26T02:21:42.783Z,11.07
2019-02-26T02:24:24.575Z,11.57
2019-02-26T02:27:05.881Z,12.20
2019-02-26T02:29:48.818Z,11.17
2019-02-26T02:32:31.718Z,11.00
2019-02-26T02:35:13.404Z,12.57
2019-02-26T02:37:56.284Z,12.20
2019-02-26T02:40:39.863Z,12.20
2019-02-26T02:43:21.381Z,12.85
2019-02-26T02:46:02.011Z,13.10
2019-02-26T02:48:43.112Z,12.00
2019-02-26T02:51:25.550Z,11.33
2019-02-26T02:54:06.695Z,12.13
2019-02-26T02:56:47.767Z,11.10
2019-02-26T03:05:00.845Z,9.70
2019-02-26T03:10:31.136Z,10.80
2019-02-26T03:13:11.918Z,11.40
2019-02-26T03:15:53.542Z,11.80
2019-02-26T03:18:38.970Z,10.80
2019-02-26T03:21:21.973Z,11.23
2019-02-26T03:24:03.354Z,10.40
2019-02-26T03:26:45.318Z,10.57
2019-02-26T03:29:26.121Z,10.70
2019-02-26T03:32:06.775Z,10.70
2019-02-26T03:34:47.628Z,10.80
2019-02-26T03:37:28.807Z,9.00
2019-02-26T03:40:11.093Z,10.50
2019-02-26T03:42:52.211Z,9.33
2019-02-26T03:45:32.848Z,12.80
2019-02-26T03:48:13.624Z,10.70
2019-02-26T03:50:54.276Z,11.50
2019-02-26T03:53:36.312Z,11.10
2019-02-26T03:56:20.414Z,10.70
2019-02-26T03:59:03.406Z,10.57
2019-02-26T04:01:43.685Z,11.73
2019-02-26T04:04:26.151Z,11.43
2019-02-26T04:07:10.252Z,10.27
2019-02-26T04:09:52.495Z,11.30
2019-02-26T04:12:36.016Z,10.87
2019-02-26T04:15:15.106Z,10.17
2019-02-26T04:17:56.251Z,11.10
2019-02-26T04:20:43.571Z,11.07
2019-02-26T04:23:22.098Z,11.70
2019-02-26T04:26:03.084Z,11.43
2019-02-26T04:28:44.970Z,11.67
2019-02-26T04:31:26.216Z,12.07
2019-02-26T04:34:08.544Z,11.30
2019-02-26T04:36:49.703Z,11.43
2019-02-26T04:42:17.543Z,10.60
2019-02-26T04:44:58.879Z,10.60
2019-02-26T04:47:40.896Z,10.70
2019-02-26T04:50:26.134Z,9.83
2019-02-26T04:53:06.153Z,18.03
2019-02-26T04:55:47.450Z,19.20
2019-02-26T04:58:28.365Z,12.57
2019-02-26T05:01:10.128Z,10.20
2019-02-26T05:03:51.877Z,9.87
2019-02-26T05:06:32.371Z,9.63
2019-02-26T05:09:13.507Z,9.03
2019-02-26T05:11:54.445Z,10.27
2019-02-26T05:14:34.911Z,9.33
2019-02-26T05:17:19.082Z,11.07
2019-02-26T05:20:03.495Z,10.47
2019-02-26T05:22:43.570Z,15.03
2019-02-26T05:25:24.655Z,18.80
2019-02-26T05:30:52.313Z,17.50
2019-02-26T05:33:33.806Z,16.90
2019-02-26T05:36:18.583Z,16.00
2019-02-26T05:39:00.358Z,18.20
2019-02-26T05:41:41.874Z,16.00
2019-02-26T05:47:07.412Z,15.37
2019-02-26T05:52:37.743Z,14.30
2019-02-26T05:55:20.720Z,15.90
2019-02-26T05:58:07.419Z,14.10
2019-02-26T06:00:48.891Z,16.80
2019-02-26T06:03:29.908Z,14.93
2019-02-26T06:06:10.550Z,13.93
2019-02-26T06:08:51.927Z,13.30
2019-02-26T06:11:36.333Z,14.00
2019-02-26T06:14:16.630Z,13.05
2019-02-26T06:16:58.079Z,13.40
2019-02-26T06:22:35.474Z,12.50
2019-02-26T06:25:20.668Z,11.70
2019-02-26T06:28:02.284Z,11.80
2019-02-26T06:30:42.711Z,11.50
2019-02-26T06:33:23.782Z,11.63
2019-02-26T06:36:07.970Z,12.40
2019-02-26T06:41:33.156Z,19.07
2019-02-26T06:44:13.691Z,31.40
2019-02-26T06:46:54.408Z,22.90
2019-02-26T06:49:35.696Z,27.00
2019-02-26T06:52:18.029Z,23.03
2019-02-26T06:57:47.117Z,19.50
2019-02-26T07:03:12.144Z,15.45
2019-02-26T07:08:37.249Z,17.47
2019-02-26T07:11:18.638Z,22.70
2019-02-26T07:14:01.310Z,26.13
2019-02-26T07:16:42.894Z,22.40
2019-02-26T07:19:29.011Z,18.75
2019-02-26T07:22:11.593Z,24.45
2019-02-26T07:24:53.974Z,22.00
2019-02-26T07:27:35.990Z,20.90
2019-02-26T07:30:17.465Z,19.25
2019-02-26T07:35:43.384Z,21.25
2019-02-26T07:38:25.180Z,21.70
2019-02-26T07:41:08.991Z,21.80
2019-02-26T07:43:51.744Z,20.80
2019-02-26T07:46:33.704Z,22.23
2019-02-26T07:49:14.851Z,22.50
2019-02-26T07:51:57.768Z,23.60
2019-02-26T07:54:39.697Z,19.37
2019-02-26T07:57:21.076Z,18.17
2019-02-26T08:00:03.041Z,18.10
2019-02-26T08:02:44.231Z,21.73
2019-02-26T08:05:26.804Z,31.27
2019-02-26T08:08:10.302Z,41.93
2019-02-26T08:13:36.596Z,77.90
2019-02-26T08:16:20.231Z,65.83
2019-02-26T08:19:04.471Z,54.40
2019-02-26T08:24:29.887Z,60.90
2019-02-26T08:27:11.630Z,53.20
2019-02-26T08:29:57.013Z,32.73
2019-02-26T08:32:39.239Z,28.60
2019-02-26T08:35:20.287Z,28.83
2019-02-26T08:38:05.605Z,32.27
2019-02-26T08:40:43.921Z,35.87
2019-02-26T08:43:25.681Z,41.57
2019-02-26T08:46:09.106Z,31.97
2019-02-26T08:48:50.850Z,34.57
2019-02-26T08:51:32.103Z,43.37
2019-02-26T08:54:20.574Z,30.73
2019-02-26T08:56:56.669Z,23.00
2019-02-26T08:59:42.291Z,15.23
2019-02-26T09:02:25.890Z,15.20
2019-02-26T09:05:09.325Z,14.00
2019-02-26T09:07:50.490Z,12.67
2019-02-26T09:10:32.889Z,13.60
2019-02-26T09:13:16.309Z,12.70
2019-02-26T09:16:00.075Z,13.30
2019-02-26T09:18:43.296Z,13.90
2019-02-26T09:21:24.258Z,14.47
2019-02-26T09:24:07.634Z,16.43
2019-02-26T09:26:54.692Z,17.80
2019-02-26T09:29:36.652Z,17.70
2019-02-26T09:32:18.265Z,16.53
2019-02-26T09:35:02.299Z,20.40
2019-02-26T09:37:42.822Z,21.30
2019-02-26T09:40:26.584Z,19.03
2019-02-26T09:43:09.234Z,18.30
2019-02-26T09:45:52.794Z,14.67
2019-02-26T09:51:19.079Z,14.90
2019-02-26T09:53:59.136Z,15.60
2019-02-26T09:56:39.636Z,15.67
2019-02-26T09:59:20.127Z,15.10
2019-02-26T10:04:47.809Z,15.80
2019-02-26T10:07:31.236Z,13.40
2019-02-26T10:10:14.060Z,13.77
2019-02-26T10:12:57.381Z,13.23
2019-02-26T10:15:39.950Z,12.73
2019-02-26T10:18:21.495Z,15.27
2019-02-26T10:21:03.593Z,15.90
2019-02-26T10:23:51.470Z,13.40
2019-02-26T10:26:30.785Z,13.90
2019-02-26T10:29:13.288Z,16.13
2019-02-26T10:31:56.694Z,12.90
2019-02-26T10:34:38.055Z,13.10
2019-02-26T10:37:19.204Z,12.60
2019-02-26T10:40:00.173Z,12.77
2019-02-26T10:42:40.731Z,12.50
2019-02-26T10:45:24.855Z,12.00
2019-02-26T10:48:05.209Z,12.47
2019-02-26T10:50:51.598Z,11.63
2019-02-26T10:53:31.263Z,12.43
2019-02-26T10:56:12.168Z,12.80
2019-02-26T10:58:57.319Z,12.40
2019-02-26T11:01:36.099Z,12.00
2019-02-26T11:04:17.565Z,12.03
2019-02-26T11:06:59.407Z,11.50
2019-02-26T11:12:31.604Z,12.10
2019-02-26T11:15:12.530Z,12.30
2019-02-26T11:17:55.913Z,11.80
2019-02-26T11:20:35.954Z,11.50
2019-02-26T11:23:16.985Z,10.83
2019-02-26T11:25:57.988Z,9.33
2019-02-26T11:28:47.765Z,10.47
2019-02-26T11:31:36.548Z,10.00
2019-02-26T11:34:18.881Z,9.97
2019-02-26T11:37:02.786Z,10.93
2019-02-26T11:39:43.330Z,10.50
2019-02-26T11:42:26.088Z,9.13
2019-02-26T11:45:11.780Z,10.07
2019-02-26T11:47:51.032Z,8.80
2019-02-26T11:50:32.237Z,9.20
2019-02-26T11:53:13.402Z,9.03
2019-02-26T11:55:56.791Z,8.53
2019-02-26T11:58:37.373Z,9.00
2019-02-26T12:01:17.970Z,7.83
2019-02-26T12:04:03.521Z,8.90
2019-02-26T12:06:42.229Z,8.70
2019-02-26T12:09:23.541Z,8.80
2019-02-26T12:12:06.114Z,9.23
2019-02-26T12:14:48.477Z,9.50
2019-02-26T12:17:29.850Z,10.63
2019-02-26T12:23:00.756Z,9.60
2019-02-26T12:25:41.238Z,9.33
2019-02-26T12:28:21.730Z,9.47
2019-02-26T12:31:04.183Z,11.13
2019-02-26T12:33:45.816Z,9.90
2019-02-26T12:36:27.308Z,8.30
2019-02-26T12:39:12.459Z,8.03
2019-02-26T12:41:52.873Z,8.90
2019-02-26T12:44:42.249Z,8.00
2019-02-26T12:47:21.666Z,7.90
2019-02-26T12:50:05.212Z,7.83
2019-02-26T12:52:47.489Z,7.00
2019-02-26T12:55:31.683Z,7.73
2019-02-26T12:58:11.278Z,8.13
2019-02-26T13:00:53.252Z,7.40
2019-02-26T13:03:38.110Z,8.43
2019-02-26T13:06:18.685Z,7.07
2019-02-26T13:12:00.486Z,8.55
2019-02-26T13:14:28.912Z,7.40
2019-02-26T13:17:09.633Z,7.23
2019-02-26T13:19:58.154Z,8.90
2019-02-26T13:22:34.099Z,8.23
2019-02-26T13:25:17.871Z,7.77
2019-02-26T13:27:57.626Z,7.40
2019-02-26T13:30:38.443Z,7.97
2019-02-26T13:33:26.187Z,7.97
2019-02-26T13:36:04.795Z,9.70
2019-02-26T13:38:49.155Z,8.00
2019-02-26T13:41:30.433Z,8.20
2019-02-26T13:44:12.250Z,9.40
2019-02-26T13:49:37.517Z,8.43
2019-02-26T13:55:04.368Z,7.85
2019-02-26T13:57:45.616Z,8.80
2019-02-26T14:09:31.178Z,8.73
2019-02-26T14:15:11.687Z,10.63
2019-02-26T14:24:22.244Z,8.90
2019-02-26T14:32:16.309Z,9.15
2019-02-26T14:35:00.264Z,8.90
2019-02-26T14:40:26.996Z,9.13
2019-02-26T14:43:08.001Z,9.30
2019-02-26T14:48:39.799Z,9.70
2019-02-26T14:51:22.072Z,9.67
2019-02-26T14:56:51.306Z,9.17
2019-02-26T15:02:23.493Z,10.33
2019-02-26T15:05:04.353Z,9.97
2019-02-26T15:07:46.489Z,9.57
2019-02-26T15:10:28.385Z,9.77
2019-02-26T15:13:09.968Z,9.83
2019-02-26T15:15:51.476Z,10.37
2019-02-26T15:18:33.025Z,10.20
2019-02-26T15:27:12.160Z,10.40
2019-02-26T15:29:54.519Z,9.97
2019-02-26T15:32:41.417Z,10.97
2019-02-26T15:35:22.247Z,10.80
2019-02-26T15:38:03.710Z,8.83
2019-02-26T15:40:46.925Z,10.03
2019-02-26T15:43:27.891Z,9.60
2019-02-26T15:46:09.417Z,10.40
2019-02-26T15:48:51.043Z,10.30
2019-02-26T15:51:35.464Z,10.00
2019-02-26T15:54:20.091Z,9.23
2019-02-26T15:57:01.283Z,9.80
2019-02-26T15:59:42.894Z,8.90
2019-02-26T16:02:25.983Z,10.57
2019-02-26T16:05:10.710Z,17.00
2019-02-26T16:07:51.919Z,17.60
2019-02-26T16:10:33.170Z,24.93
2019-02-26T16:13:13.759Z,20.33
2019-02-26T16:15:58.539Z,13.67
2019-02-26T16:18:40.938Z,8.50
2019-02-26T16:21:22.439Z,10.17
2019-02-26T16:24:05.528Z,9.03
2019-02-26T16:26:47.059Z,8.87
2019-02-26T16:29:30.160Z,9.03
2019-02-26T16:35:03.036Z,8.60
2019-02-26T16:40:35.991Z,8.40
2019-02-26T16:43:17.879Z,8.53
2019-02-26T16:48:38.465Z,9.57
2019-02-26T16:54:49.213Z,9.67
2019-02-26T16:57:34.513Z,9.53
2019-02-26T17:00:16.447Z,9.20
2019-02-26T17:03:00.801Z,9.07
2019-02-26T17:08:26.874Z,9.13
2019-02-26T17:11:14.413Z,9.13
2019-02-26T17:13:57.551Z,8.70
2019-02-26T17:16:47.730Z,8.67
2019-02-26T17:19:34.035Z,8.80
2019-02-26T17:22:15.449Z,9.77
2019-02-26T17:24:56.374Z,9.43
2019-02-26T17:27:38.974Z,9.20
2019-02-26T17:30:20.866Z,10.10
2019-02-26T17:33:02.274Z,8.80
2019-02-26T17:35:43.696Z,8.80
2019-02-26T17:38:26.062Z,9.33
2019-02-26T17:41:07.191Z,9.90
2019-02-26T17:43:53.487Z,8.50
2019-02-26T17:49:20.691Z,9.10
2019-02-26T17:52:06.425Z,9.97
2019-02-26T17:54:49.739Z,9.60
2019-02-26T18:00:14.937Z,9.60
2019-02-26T18:02:56.024Z,9.63
2019-02-26T18:05:50.425Z,10.13
2019-02-26T18:08:20.550Z,8.70
2019-02-26T18:11:02.600Z,10.00
2019-02-26T18:13:43.940Z,9.20
2019-02-26T18:16:25.452Z,9.53
2019-02-26T18:19:06.904Z,10.00
2019-02-26T18:21:51.698Z,9.50
2019-02-26T18:24:32.215Z,10.77
2019-02-26T18:27:13.477Z,10.70
2019-02-26T18:29:54.840Z,9.70
2019-02-26T18:32:36.379Z,11.20
2019-02-26T18:35:18.033Z,9.70
2019-02-26T18:37:59.070Z,11.27
2019-02-26T18:40:40.047Z,11.23
2019-02-26T18:43:21.451Z,11.17
2019-02-26T18:48:49.275Z,14.00
2019-02-26T18:54:17.733Z,11.63
2019-02-26T18:57:01.294Z,22.10
2019-02-26T18:59:42.865Z,29.65
2019-02-26T19:02:24.185Z,25.30
2019-02-26T19:05:07.648Z,26.33
2019-02-26T19:07:49.021Z,23.93
2019-02-26T19:10:30.190Z,23.10
2019-02-26T19:13:12.797Z,20.90
2019-02-26T19:15:54.012Z,14.30
2019-02-26T19:18:46.841Z,14.70
2019-02-26T19:21:24.326Z,17.30
2019-02-26T19:24:05.235Z,17.57
2019-02-26T19:26:47.642Z,12.40
2019-02-26T19:29:53.541Z,13.60
2019-02-26T19:32:18.654Z,14.57
2019-02-26T19:35:12.066Z,12.90
2019-02-26T19:37:55.234Z,11.60
2019-02-26T19:43:30.542Z,11.30
2019-02-26T19:46:16.743Z,10.70
2019-02-26T19:49:00.659Z,12.27
2019-02-26T19:52:07.439Z,15.23
2019-02-26T19:54:41.967Z,16.80
2019-02-26T20:08:36.507Z,15.47
2019-02-26T20:11:18.000Z,15.20
2019-02-26T20:14:04.707Z,17.00
2019-02-26T20:16:44.232Z,16.70
2019-02-26T20:22:12.862Z,16.37
2019-02-26T20:24:54.146Z,16.20
2019-02-26T20:27:36.683Z,16.60
2019-02-26T20:30:17.994Z,17.17
2019-02-26T20:33:01.565Z,17.23
2019-02-26T20:35:45.398Z,17.00
2019-02-26T20:38:35.078Z,16.67
2019-02-26T20:41:21.847Z,12.73
2019-02-26T20:44:02.942Z,12.83
2019-02-26T20:46:44.842Z,11.60
2019-02-26T20:53:12.766Z,13.30
2019-02-26T20:55:19.339Z,13.50
2019-02-26T20:58:00.171Z,16.00
2019-02-26T21:00:44.586Z,13.80
2019-02-26T21:03:35.613Z,14.33
2019-02-26T21:06:18.599Z,14.80
2019-02-26T21:09:06.955Z,13.83
2019-02-26T21:11:48.298Z,13.87
2019-02-26T21:14:30.585Z,13.50
2019-02-26T21:17:12.445Z,14.93
2019-02-26T21:22:37.882Z,19.03
2019-02-26T21:28:03.379Z,20.03
2019-02-26T21:30:45.901Z,20.07
2019-02-26T21:33:30.620Z,21.93
2019-02-26T21:36:10.084Z,19.50
2019-02-26T21:38:51.182Z,18.03
2019-02-26T21:41:34.534Z,23.40
2019-02-26T21:44:15.577Z,19.87
2019-02-26T21:46:57.348Z,19.00
2019-02-26T21:49:40.933Z,22.13
2019-02-26T21:55:44.346Z,19.73
2019-02-26T21:58:26.851Z,20.23
2019-02-26T22:01:11.438Z,17.47
2019-02-26T22:06:36.157Z,17.70
2019-02-26T22:09:18.392Z,15.83
2019-02-26T22:12:00.226Z,16.57
2019-02-26T22:17:31.205Z,27.60
2019-02-26T22:23:02.063Z,27.13
2019-02-26T22:28:32.306Z,24.80
2019-02-26T22:34:02.905Z,24.43
2019-02-26T22:39:30.250Z,20.77
2019-02-26T22:42:11.578Z,26.10
2019-02-26T22:44:54.845Z,22.63
2019-02-26T22:50:29.125Z,18.87
2019-02-26T22:53:10.316Z,19.60
2019-02-26T22:55:52.265Z,23.47
2019-02-26T22:58:35.657Z,23.97
2019-02-26T23:01:19.099Z,30.63
2019-02-26T23:04:03.667Z,28.90
2019-02-26T23:06:45.138Z,28.97
2019-02-26T23:09:26.362Z,29.30
2019-02-26T23:12:07.436Z,31.50
2019-02-26T23:14:48.632Z,31.40
2019-02-26T23:17:29.568Z,26.47
2019-02-26T23:20:10.887Z,25.80
2019-02-26T23:22:52.533Z,24.93
2019-02-26T23:25:36.050Z,18.30
2019-02-26T23:28:16.771Z,18.30
2019-02-26T23:30:59.803Z,15.90
2019-02-26T23:33:41.059Z,16.60
2019-02-26T23:36:25.749Z,16.70
2019-02-26T23:39:07.367Z,16.87
2019-02-26T23:41:48.959Z,16.83
2019-02-26T23:44:32.994Z,16.70
2019-02-26T23:47:14.752Z,18.00
2019-02-26T23:49:55.988Z,17.73
2019-02-26T23:55:24.082Z,16.83
